sensor_id;sensor_type;location;lat;lon;timestamp;pressure;altitude;pressure_sealevel;temperature;humidity
44351;BME280;62766;62.622;17.912;2022-12-29T00:01:00;100219.84;;;-10.89;54.50
44351;BME280;62766;62.622;17.912;2022-12-29T00:03:29;100217.21;;;-10.96;54.43
44351;BME280;62766;62.622;17.912;2022-12-29T00:05:58;100213.45;;;-10.85;54.52
44351;BME280;62766;62.622;17.912;2022-12-29T00:08:27;100213.07;;;-10.87;55.06
44351;BME280;62766;62.622;17.912;2022-12-29T00:10:56;100212.51;;;-10.90;55.27
44351;BME280;62766;62.622;17.912;2022-12-29T00:13:25;100204.16;;;-10.92;55.21
44351;BME280;62766;62.622;17.912;2022-12-29T00:15:54;100198.96;;;-10.99;54.93
44351;BME280;62766;62.622;17.912;2022-12-29T00:18:21;100190.77;;;-10.86;54.93
44351;BME280;62766;62.622;17.912;2022-12-29T00:20:54;100181.05;;;-10.86;55.12
44351;BME280;62766;62.622;17.912;2022-12-29T00:23:23;100179.90;;;-10.80;55.09
44351;BME280;62766;62.622;17.912;2022-12-29T00:25:51;100176.07;;;-10.83;54.82
44351;BME280;62766;62.622;17.912;2022-12-29T00:28:20;100175.85;;;-11.03;53.51
44351;BME280;62766;62.622;17.912;2022-12-29T00:30:49;100173.73;;;-11.26;51.77
44351;BME280;62766;62.622;17.912;2022-12-29T00:33:19;100175.39;;;-11.62;51.29
44351;BME280;62766;62.622;17.912;2022-12-29T00:35:53;100181.51;;;-11.78;51.33
44351;BME280;62766;62.622;17.912;2022-12-29T00:38:22;100185.53;;;-12.01;50.62
44351;BME280;62766;62.622;17.912;2022-12-29T00:40:51;100189.28;;;-12.10;51.25
44351;BME280;62766;62.622;17.912;2022-12-29T00:43:20;100190.96;;;-12.16;52.57
44351;BME280;62766;62.622;17.912;2022-12-29T00:45:49;100200.54;;;-12.02;53.52
44351;BME280;62766;62.622;17.912;2022-12-29T00:48:18;100204.61;;;-11.96;54.00
44351;BME280;62766;62.622;17.912;2022-12-29T00:50:46;100204.51;;;-11.98;54.85
44351;BME280;62766;62.622;17.912;2022-12-29T00:53:15;100211.49;;;-11.81;55.74
44351;BME280;62766;62.622;17.912;2022-12-29T00:55:44;100207.01;;;-11.74;56.17
44351;BME280;62766;62.622;17.912;2022-12-29T00:58:12;100203.28;;;-11.53;56.32
44351;BME280;62766;62.622;17.912;2022-12-29T01:00:40;100203.85;;;-11.55;56.35
44351;BME280;62766;62.622;17.912;2022-12-29T01:03:10;100210.33;;;-11.42;56.40
44351;BME280;62766;62.622;17.912;2022-12-29T01:05:38;100204.32;;;-11.34;56.53
44351;BME280;62766;62.622;17.912;2022-12-29T01:08:08;100204.16;;;-11.07;56.85
44351;BME280;62766;62.622;17.912;2022-12-29T01:10:37;100199.32;;;-10.87;57.09
44351;BME280;62766;62.622;17.912;2022-12-29T01:13:06;100195.47;;;-10.84;57.17
44351;BME280;62766;62.622;17.912;2022-12-29T01:15:35;100197.89;;;-10.63;56.96
44351;BME280;62766;62.622;17.912;2022-12-29T01:18:04;100196.43;;;-10.67;56.60
44351;BME280;62766;62.622;17.912;2022-12-29T01:20:31;100197.03;;;-10.61;56.18
44351;BME280;62766;62.622;17.912;2022-12-29T01:23:00;100197.24;;;-10.67;56.18
44351;BME280;62766;62.622;17.912;2022-12-29T01:25:29;100197.93;;;-10.59;56.16
44351;BME280;62766;62.622;17.912;2022-12-29T01:27:57;100191.53;;;-10.59;56.15
44351;BME280;62766;62.622;17.912;2022-12-29T01:30:26;100188.50;;;-10.65;56.39
44351;BME280;62766;62.622;17.912;2022-12-29T01:32:55;100188.48;;;-10.45;56.62
44351;BME280;62766;62.622;17.912;2022-12-29T01:35:24;100188.20;;;-10.57;56.78
44351;BME280;62766;62.622;17.912;2022-12-29T01:37:53;100181.58;;;-10.43;56.38
44351;BME280;62766;62.622;17.912;2022-12-29T01:40:22;100178.24;;;-10.45;56.15
44351;BME280;62766;62.622;17.912;2022-12-29T01:42:51;100176.75;;;-10.53;56.15
44351;BME280;62766;62.622;17.912;2022-12-29T01:45:20;100183.40;;;-10.48;55.83
44351;BME280;62766;62.622;17.912;2022-12-29T01:47:51;100180.75;;;-10.47;55.55
44351;BME280;62766;62.622;17.912;2022-12-29T01:50:26;100174.46;;;-10.31;54.99
44351;BME280;62766;62.622;17.912;2022-12-29T01:53:00;100177.76;;;-10.36;55.02
44351;BME280;62766;62.622;17.912;2022-12-29T01:55:34;100173.61;;;-10.38;55.26
44351;BME280;62766;62.622;17.912;2022-12-29T01:58:06;100163.60;;;-10.36;55.17
44351;BME280;62766;62.622;17.912;2022-12-29T02:00:34;100164.19;;;-10.40;54.99
44351;BME280;62766;62.622;17.912;2022-12-29T02:03:04;100162.92;;;-10.53;54.68
44351;BME280;62766;62.622;17.912;2022-12-29T02:05:38;100167.51;;;-10.50;54.61
44351;BME280;62766;62.622;17.912;2022-12-29T02:08:11;100161.32;;;-10.41;53.77
44351;BME280;62766;62.622;17.912;2022-12-29T02:10:42;100162.83;;;-10.42;54.05
44351;BME280;62766;62.622;17.912;2022-12-29T02:13:15;100160.25;;;-10.36;54.47
44351;BME280;62766;62.622;17.912;2022-12-29T02:15:50;100167.99;;;-10.40;54.93
44351;BME280;62766;62.622;17.912;2022-12-29T02:18:32;100168.11;;;-10.41;55.29
44351;BME280;62766;62.622;17.912;2022-12-29T02:22:20;100158.05;;;-10.41;55.41
44351;BME280;62766;62.622;17.912;2022-12-29T02:25:43;100156.53;;;-10.30;55.71
44351;BME280;62766;62.622;17.912;2022-12-29T02:28:39;100151.53;;;-10.20;55.36
44351;BME280;62766;62.622;17.912;2022-12-29T02:31:17;100150.28;;;-10.22;55.22
44351;BME280;62766;62.622;17.912;2022-12-29T02:34:00;100144.34;;;-10.13;55.09
44351;BME280;62766;62.622;17.912;2022-12-29T02:36:38;100141.48;;;-10.14;55.29
44351;BME280;62766;62.622;17.912;2022-12-29T02:39:15;100141.08;;;-10.03;55.59
44351;BME280;62766;62.622;17.912;2022-12-29T02:41:57;100135.23;;;-9.84;55.56
44351;BME280;62766;62.622;17.912;2022-12-29T02:44:34;100127.93;;;-9.89;55.54
44351;BME280;62766;62.622;17.912;2022-12-29T02:47:11;100124.49;;;-9.87;55.79
44351;BME280;62766;62.622;17.912;2022-12-29T02:49:47;100125.03;;;-9.71;55.48
44351;BME280;62766;62.622;17.912;2022-12-29T02:52:20;100122.33;;;-9.68;55.60
44351;BME280;62766;62.622;17.912;2022-12-29T02:54:53;100119.34;;;-9.79;55.62
44351;BME280;62766;62.622;17.912;2022-12-29T02:57:31;100112.78;;;-9.63;55.52
44351;BME280;62766;62.622;17.912;2022-12-29T03:00:04;100111.64;;;-9.81;55.46
44351;BME280;62766;62.622;17.912;2022-12-29T03:03:05;100111.85;;;-9.69;55.33
44351;BME280;62766;62.622;17.912;2022-12-29T03:05:53;100115.48;;;-9.67;55.01
44351;BME280;62766;62.622;17.912;2022-12-29T03:08:31;100112.95;;;-9.61;54.81
44351;BME280;62766;62.622;17.912;2022-12-29T03:11:04;100111.10;;;-9.56;54.89
44351;BME280;62766;62.622;17.912;2022-12-29T03:13:43;100107.82;;;-9.66;55.00
44351;BME280;62766;62.622;17.912;2022-12-29T03:16:20;100114.32;;;-9.51;54.62
44351;BME280;62766;62.622;17.912;2022-12-29T03:18:56;100114.01;;;-9.76;55.38
44351;BME280;62766;62.622;17.912;2022-12-29T03:21:32;100112.32;;;-9.59;55.57
44351;BME280;62766;62.622;17.912;2022-12-29T03:24:03;100106.32;;;-9.66;55.93
44351;BME280;62766;62.622;17.912;2022-12-29T03:26:34;100110.73;;;-9.49;56.46
44351;BME280;62766;62.622;17.912;2022-12-29T03:29:06;100105.59;;;-9.41;56.89
44351;BME280;62766;62.622;17.912;2022-12-29T03:31:37;100099.49;;;-9.31;57.14
44351;BME280;62766;62.622;17.912;2022-12-29T03:34:07;100094.77;;;-9.21;57.27
44351;BME280;62766;62.622;17.912;2022-12-29T03:36:42;100094.78;;;-9.12;57.28
44351;BME280;62766;62.622;17.912;2022-12-29T03:39:12;100088.53;;;-9.07;57.50
44351;BME280;62766;62.622;17.912;2022-12-29T03:41:42;100076.92;;;-9.01;57.69
44351;BME280;62766;62.622;17.912;2022-12-29T03:44:13;100072.43;;;-9.10;57.80
44351;BME280;62766;62.622;17.912;2022-12-29T03:46:41;100066.58;;;-8.96;57.76
44351;BME280;62766;62.622;17.912;2022-12-29T03:49:11;100061.60;;;-9.02;57.54
44351;BME280;62766;62.622;17.912;2022-12-29T03:51:39;100064.04;;;-8.97;57.32
44351;BME280;62766;62.622;17.912;2022-12-29T03:54:09;100062.26;;;-8.98;57.24
44351;BME280;62766;62.622;17.912;2022-12-29T03:56:37;100056.21;;;-8.98;56.81
44351;BME280;62766;62.622;17.912;2022-12-29T03:59:06;100061.37;;;-9.00;56.47
44351;BME280;62766;62.622;17.912;2022-12-29T04:01:34;100054.79;;;-8.94;56.62
44351;BME280;62766;62.622;17.912;2022-12-29T04:04:03;100051.41;;;-8.90;56.80
44351;BME280;62766;62.622;17.912;2022-12-29T04:06:32;100036.86;;;-9.01;56.60
44351;BME280;62766;62.622;17.912;2022-12-29T04:09:01;100034.06;;;-9.00;56.81
44351;BME280;62766;62.622;17.912;2022-12-29T04:11:30;100032.19;;;-8.87;56.78
44351;BME280;62766;62.622;17.912;2022-12-29T04:13:59;100031.53;;;-8.95;56.75
44351;BME280;62766;62.622;17.912;2022-12-29T04:16:27;100028.45;;;-8.85;56.64
44351;BME280;62766;62.622;17.912;2022-12-29T04:18:57;100024.22;;;-8.84;56.59
44351;BME280;62766;62.622;17.912;2022-12-29T04:21:25;100019.86;;;-8.94;56.59
44351;BME280;62766;62.622;17.912;2022-12-29T04:23:54;100024.06;;;-8.93;56.42
44351;BME280;62766;62.622;17.912;2022-12-29T04:26:23;100017.81;;;-8.80;56.14
44351;BME280;62766;62.622;17.912;2022-12-29T04:28:51;100004.73;;;-8.82;56.23
44351;BME280;62766;62.622;17.912;2022-12-29T04:31:20;100002.37;;;-8.81;56.26
44351;BME280;62766;62.622;17.912;2022-12-29T04:33:49;99997.13;;;-8.71;56.43
44351;BME280;62766;62.622;17.912;2022-12-29T04:36:18;99988.22;;;-8.76;56.64
44351;BME280;62766;62.622;17.912;2022-12-29T04:38:46;99975.42;;;-8.88;56.37
44351;BME280;62766;62.622;17.912;2022-12-29T04:41:15;99973.27;;;-8.88;56.47
44351;BME280;62766;62.622;17.912;2022-12-29T04:43:44;99975.47;;;-8.65;56.88
44351;BME280;62766;62.622;17.912;2022-12-29T04:46:13;99984.33;;;-8.67;57.18
44351;BME280;62766;62.622;17.912;2022-12-29T04:48:42;99981.34;;;-8.51;57.11
44351;BME280;62766;62.622;17.912;2022-12-29T04:51:11;99966.37;;;-8.71;57.17
44351;BME280;62766;62.622;17.912;2022-12-29T04:53:39;99961.62;;;-8.58;57.21
44351;BME280;62766;62.622;17.912;2022-12-29T04:56:08;99955.02;;;-8.63;57.47
44351;BME280;62766;62.622;17.912;2022-12-29T04:58:37;99955.07;;;-8.49;57.69
44351;BME280;62766;62.622;17.912;2022-12-29T05:03:35;99936.83;;;-8.46;57.95
44351;BME280;62766;62.622;17.912;2022-12-29T05:06:04;99935.39;;;-8.41;58.05
44351;BME280;62766;62.622;17.912;2022-12-29T05:08:33;99932.74;;;-8.28;58.09
44351;BME280;62766;62.622;17.912;2022-12-29T05:11:01;99936.78;;;-8.20;58.19
44351;BME280;62766;62.622;17.912;2022-12-29T05:13:31;99933.43;;;-8.19;58.25
44351;BME280;62766;62.622;17.912;2022-12-29T05:15:59;99927.63;;;-8.23;58.27
44351;BME280;62766;62.622;17.912;2022-12-29T05:18:28;99927.11;;;-7.87;58.66
44351;BME280;62766;62.622;17.912;2022-12-29T05:20:57;99940.37;;;-8.08;58.93
44351;BME280;62766;62.622;17.912;2022-12-29T05:23:25;99948.30;;;-7.90;58.84
44351;BME280;62766;62.622;17.912;2022-12-29T05:25:55;99946.30;;;-7.81;58.69
44351;BME280;62766;62.622;17.912;2022-12-29T05:28:23;99955.76;;;-7.81;59.13
44351;BME280;62766;62.622;17.912;2022-12-29T05:30:51;99952.53;;;-7.67;59.42
44351;BME280;62766;62.622;17.912;2022-12-29T05:33:21;99944.57;;;-7.56;60.06
44351;BME280;62766;62.622;17.912;2022-12-29T05:35:49;99945.60;;;-7.34;60.47
44351;BME280;62766;62.622;17.912;2022-12-29T05:38:17;99944.40;;;-7.39;60.70
44351;BME280;62766;62.622;17.912;2022-12-29T05:40:45;99940.79;;;-7.32;60.88
44351;BME280;62766;62.622;17.912;2022-12-29T05:43:14;99930.99;;;-7.14;60.76
44351;BME280;62766;62.622;17.912;2022-12-29T05:45:43;99920.85;;;-7.14;60.47
44351;BME280;62766;62.622;17.912;2022-12-29T05:48:12;99917.32;;;-7.12;59.95
44351;BME280;62766;62.622;17.912;2022-12-29T05:50:42;99906.05;;;-7.18;60.41
44351;BME280;62766;62.622;17.912;2022-12-29T05:53:11;99898.98;;;-7.23;60.71
44351;BME280;62766;62.622;17.912;2022-12-29T05:55:39;99890.00;;;-7.10;61.05
44351;BME280;62766;62.622;17.912;2022-12-29T05:58:08;99891.50;;;-7.09;61.80
44351;BME280;62766;62.622;17.912;2022-12-29T06:00:37;99897.97;;;-7.18;61.79
44351;BME280;62766;62.622;17.912;2022-12-29T06:03:06;99902.77;;;-7.22;62.14
44351;BME280;62766;62.622;17.912;2022-12-29T06:05:35;99888.62;;;-7.38;62.97
44351;BME280;62766;62.622;17.912;2022-12-29T06:08:04;99888.55;;;-7.14;63.72
44351;BME280;62766;62.622;17.912;2022-12-29T06:10:32;99884.88;;;-7.07;65.04
44351;BME280;62766;62.622;17.912;2022-12-29T06:13:01;99875.71;;;-6.97;65.54
44351;BME280;62766;62.622;17.912;2022-12-29T06:15:29;99865.18;;;-6.99;65.80
44351;BME280;62766;62.622;17.912;2022-12-29T06:17:59;99862.21;;;-6.84;66.37
44351;BME280;62766;62.622;17.912;2022-12-29T06:20:27;99859.86;;;-6.65;66.66
44351;BME280;62766;62.622;17.912;2022-12-29T06:22:55;99846.22;;;-6.61;66.77
44351;BME280;62766;62.622;17.912;2022-12-29T06:25:24;99845.82;;;-6.61;67.89
44351;BME280;62766;62.622;17.912;2022-12-29T06:27:52;99836.11;;;-6.43;68.32
44351;BME280;62766;62.622;17.912;2022-12-29T06:30:21;99833.21;;;-6.30;68.61
44351;BME280;62766;62.622;17.912;2022-12-29T06:32:50;99834.57;;;-6.16;69.26
44351;BME280;62766;62.622;17.912;2022-12-29T06:35:19;99827.04;;;-6.17;69.55
44351;BME280;62766;62.622;17.912;2022-12-29T06:37:46;99820.55;;;-6.04;69.56
44351;BME280;62766;62.622;17.912;2022-12-29T06:40:15;99813.92;;;-5.89;69.48
44351;BME280;62766;62.622;17.912;2022-12-29T06:42:45;99815.62;;;-5.82;69.82
44351;BME280;62766;62.622;17.912;2022-12-29T06:45:13;99806.11;;;-5.63;70.33
44351;BME280;62766;62.622;17.912;2022-12-29T06:47:41;99807.08;;;-5.46;70.70
44351;BME280;62766;62.622;17.912;2022-12-29T06:50:10;99805.61;;;-5.38;71.08
44351;BME280;62766;62.622;17.912;2022-12-29T06:52:40;99804.06;;;-5.19;72.60
44351;BME280;62766;62.622;17.912;2022-12-29T06:55:09;99799.07;;;-5.05;73.10
44351;BME280;62766;62.622;17.912;2022-12-29T06:57:37;99797.94;;;-4.89;73.45
44351;BME280;62766;62.622;17.912;2022-12-29T07:00:08;99797.67;;;-4.80;73.96
44351;BME280;62766;62.622;17.912;2022-12-29T07:02:38;99795.46;;;-4.61;73.70
44351;BME280;62766;62.622;17.912;2022-12-29T07:05:07;99789.35;;;-4.60;74.41
44351;BME280;62766;62.622;17.912;2022-12-29T07:07:35;99779.68;;;-4.43;74.92
44351;BME280;62766;62.622;17.912;2022-12-29T07:10:04;99786.74;;;-4.30;75.34
44351;BME280;62766;62.622;17.912;2022-12-29T07:12:34;99785.30;;;-4.11;75.62
44351;BME280;62766;62.622;17.912;2022-12-29T07:15:03;99779.59;;;-4.00;76.34
44351;BME280;62766;62.622;17.912;2022-12-29T07:17:31;99783.13;;;-3.74;77.42
44351;BME280;62766;62.622;17.912;2022-12-29T07:20:00;99769.99;;;-3.64;77.07
44351;BME280;62766;62.622;17.912;2022-12-29T07:22:28;99756.83;;;-3.51;78.11
44351;BME280;62766;62.622;17.912;2022-12-29T07:24:57;99756.05;;;-3.38;78.77
44351;BME280;62766;62.622;17.912;2022-12-29T07:27:25;99750.30;;;-3.19;80.33
44351;BME280;62766;62.622;17.912;2022-12-29T07:29:54;99741.65;;;-3.05;82.80
44351;BME280;62766;62.622;17.912;2022-12-29T07:32:23;99734.86;;;-2.83;83.18
44351;BME280;62766;62.622;17.912;2022-12-29T07:34:51;99734.90;;;-2.59;84.44
44351;BME280;62766;62.622;17.912;2022-12-29T07:37:20;99738.74;;;-2.48;84.51
44351;BME280;62766;62.622;17.912;2022-12-29T07:39:48;99737.61;;;-2.27;85.41
44351;BME280;62766;62.622;17.912;2022-12-29T07:42:17;99727.15;;;-2.19;85.24
44351;BME280;62766;62.622;17.912;2022-12-29T07:44:45;99719.11;;;-2.06;85.57
44351;BME280;62766;62.622;17.912;2022-12-29T07:47:14;99714.60;;;-2.00;86.27
44351;BME280;62766;62.622;17.912;2022-12-29T07:49:43;99706.61;;;-1.83;86.07
44351;BME280;62766;62.622;17.912;2022-12-29T07:52:13;99695.92;;;-1.83;85.42
44351;BME280;62766;62.622;17.912;2022-12-29T07:54:41;99692.56;;;-1.66;86.25
44351;BME280;62766;62.622;17.912;2022-12-29T07:57:09;99684.13;;;-1.47;86.80
44351;BME280;62766;62.622;17.912;2022-12-29T07:59:38;99675.73;;;-1.41;87.72
44351;BME280;62766;62.622;17.912;2022-12-29T08:02:09;99672.85;;;-1.27;87.65
44351;BME280;62766;62.622;17.912;2022-12-29T08:04:38;99675.26;;;-1.34;87.51
44351;BME280;62766;62.622;17.912;2022-12-29T08:07:07;99670.49;;;-1.24;87.74
44351;BME280;62766;62.622;17.912;2022-12-29T08:09:35;99668.67;;;-1.27;87.49
44351;BME280;62766;62.622;17.912;2022-12-29T08:12:05;99661.11;;;-1.20;87.24
44351;BME280;62766;62.622;17.912;2022-12-29T08:14:33;99659.19;;;-1.20;87.37
44351;BME280;62766;62.622;17.912;2022-12-29T08:17:02;99658.90;;;-1.20;87.60
44351;BME280;62766;62.622;17.912;2022-12-29T08:19:30;99650.93;;;-1.13;88.24
44351;BME280;62766;62.622;17.912;2022-12-29T08:21:59;99644.27;;;-1.15;88.12
44351;BME280;62766;62.622;17.912;2022-12-29T08:24:27;99638.00;;;-1.16;88.47
44351;BME280;62766;62.622;17.912;2022-12-29T08:26:56;99630.22;;;-0.98;88.58
44351;BME280;62766;62.622;17.912;2022-12-29T08:29:24;99633.24;;;-1.03;89.39
44351;BME280;62766;62.622;17.912;2022-12-29T08:31:53;99619.81;;;-0.90;89.68
44351;BME280;62766;62.622;17.912;2022-12-29T08:34:21;99622.40;;;-0.83;89.74
44351;BME280;62766;62.622;17.912;2022-12-29T08:36:50;99613.66;;;-0.84;89.61
44351;BME280;62766;62.622;17.912;2022-12-29T08:39:18;99609.29;;;-0.76;89.24
44351;BME280;62766;62.622;17.912;2022-12-29T08:41:47;99593.69;;;-0.69;88.88
44351;BME280;62766;62.622;17.912;2022-12-29T08:44:16;99595.91;;;-0.71;88.98
44351;BME280;62766;62.622;17.912;2022-12-29T08:46:44;99587.72;;;-0.63;89.21
44351;BME280;62766;62.622;17.912;2022-12-29T08:49:14;99581.71;;;-0.64;89.69
44351;BME280;62766;62.622;17.912;2022-12-29T08:51:42;99579.73;;;-0.58;89.52
44351;BME280;62766;62.622;17.912;2022-12-29T08:54:11;99570.49;;;-0.47;89.97
44351;BME280;62766;62.622;17.912;2022-12-29T08:56:39;99566.70;;;-0.43;90.71
44351;BME280;62766;62.622;17.912;2022-12-29T08:59:07;99556.16;;;-0.51;90.63
44351;BME280;62766;62.622;17.912;2022-12-29T09:01:36;99557.42;;;-0.51;90.59
44351;BME280;62766;62.622;17.912;2022-12-29T09:04:04;99548.76;;;-0.43;90.55
44351;BME280;62766;62.622;17.912;2022-12-29T09:06:33;99540.92;;;-0.45;90.34
44351;BME280;62766;62.622;17.912;2022-12-29T09:09:02;99535.65;;;-0.38;90.65
44351;BME280;62766;62.622;17.912;2022-12-29T09:11:30;99526.17;;;-0.40;90.23
44351;BME280;62766;62.622;17.912;2022-12-29T09:13:58;99531.32;;;-0.36;90.36
44351;BME280;62766;62.622;17.912;2022-12-29T09:16:27;99526.58;;;-0.30;90.04
44351;BME280;62766;62.622;17.912;2022-12-29T09:18:56;99517.38;;;-0.36;90.30
44351;BME280;62766;62.622;17.912;2022-12-29T09:21:24;99513.69;;;-0.44;90.12
44351;BME280;62766;62.622;17.912;2022-12-29T09:23:53;99507.54;;;-0.32;89.79
44351;BME280;62766;62.622;17.912;2022-12-29T09:26:21;99503.09;;;-0.41;89.31
44351;BME280;62766;62.622;17.912;2022-12-29T09:28:50;99493.83;;;-0.23;89.18
44351;BME280;62766;62.622;17.912;2022-12-29T09:31:18;99486.85;;;-0.17;89.07
44351;BME280;62766;62.622;17.912;2022-12-29T09:33:47;99485.68;;;-0.15;89.28
44351;BME280;62766;62.622;17.912;2022-12-29T09:36:15;99479.26;;;-0.19;89.35
44351;BME280;62766;62.622;17.912;2022-12-29T09:38:44;99474.24;;;-0.23;89.36
44351;BME280;62766;62.622;17.912;2022-12-29T09:41:18;99475.38;;;-0.15;89.61
44351;BME280;62766;62.622;17.912;2022-12-29T09:44:00;99471.63;;;-0.11;89.94
44351;BME280;62766;62.622;17.912;2022-12-29T09:46:35;99457.53;;;-0.18;90.02
44351;BME280;62766;62.622;17.912;2022-12-29T09:49:16;99462.66;;;0.08;89.98
44351;BME280;62766;62.622;17.912;2022-12-29T09:51:51;99463.54;;;0.03;89.77
44351;BME280;62766;62.622;17.912;2022-12-29T09:54:27;99457.50;;;0.06;89.89
44351;BME280;62766;62.622;17.912;2022-12-29T09:57:01;99455.10;;;0.02;89.81
44351;BME280;62766;62.622;17.912;2022-12-29T09:59:38;99454.77;;;0.01;90.02
44351;BME280;62766;62.622;17.912;2022-12-29T10:02:20;99449.13;;;0.11;90.69
44351;BME280;62766;62.622;17.912;2022-12-29T10:04:51;99442.63;;;0.03;90.89
44351;BME280;62766;62.622;17.912;2022-12-29T10:07:28;99440.95;;;0.10;91.48
44351;BME280;62766;62.622;17.912;2022-12-29T10:10:11;99432.39;;;0.28;91.55
44351;BME280;62766;62.622;17.912;2022-12-29T10:12:57;99421.00;;;0.20;91.78
44351;BME280;62766;62.622;17.912;2022-12-29T10:15:40;99417.57;;;0.16;92.38
44351;BME280;62766;62.622;17.912;2022-12-29T10:18:23;99408.68;;;0.21;92.88
44351;BME280;62766;62.622;17.912;2022-12-29T10:21:01;99400.89;;;0.26;93.41
44351;BME280;62766;62.622;17.912;2022-12-29T10:23:37;99401.17;;;0.26;93.66
44351;BME280;62766;62.622;17.912;2022-12-29T10:26:12;99399.63;;;0.25;93.97
44351;BME280;62766;62.622;17.912;2022-12-29T10:28:45;99391.47;;;0.31;94.04
44351;BME280;62766;62.622;17.912;2022-12-29T10:31:18;99392.69;;;0.32;93.88
44351;BME280;62766;62.622;17.912;2022-12-29T10:33:55;99377.53;;;0.34;94.23
44351;BME280;62766;62.622;17.912;2022-12-29T10:36:30;99382.26;;;0.51;94.34
44351;BME280;62766;62.622;17.912;2022-12-29T10:39:06;99380.19;;;0.52;94.34
44351;BME280;62766;62.622;17.912;2022-12-29T10:41:47;99368.30;;;0.59;94.03
44351;BME280;62766;62.622;17.912;2022-12-29T10:44:18;99360.07;;;0.44;93.65
44351;BME280;62766;62.622;17.912;2022-12-29T10:46:56;99352.08;;;0.45;93.56
44351;BME280;62766;62.622;17.912;2022-12-29T10:49:26;99349.56;;;0.51;93.29
44351;BME280;62766;62.622;17.912;2022-12-29T10:51:59;99344.45;;;0.56;93.16
44351;BME280;62766;62.622;17.912;2022-12-29T10:54:38;99337.76;;;0.62;93.23
44351;BME280;62766;62.622;17.912;2022-12-29T10:57:11;99336.42;;;0.51;93.23
44351;BME280;62766;62.622;17.912;2022-12-29T10:59:41;99327.02;;;0.62;93.27
44351;BME280;62766;62.622;17.912;2022-12-29T11:04:02;99332.59;;;0.55;93.63
44351;BME280;62766;62.622;17.912;2022-12-29T11:06:31;99320.69;;;0.56;93.36
44351;BME280;62766;62.622;17.912;2022-12-29T11:09:08;99313.83;;;0.67;92.85
44351;BME280;62766;62.622;17.912;2022-12-29T11:11:39;99305.39;;;0.60;92.69
44351;BME280;62766;62.622;17.912;2022-12-29T11:14:12;99304.24;;;0.64;92.46
44351;BME280;62766;62.622;17.912;2022-12-29T11:16:42;99291.40;;;0.75;92.58
44351;BME280;62766;62.622;17.912;2022-12-29T11:19:28;99295.62;;;0.70;92.46
44351;BME280;62766;62.622;17.912;2022-12-29T11:22:12;99286.26;;;0.76;92.58
44351;BME280;62766;62.622;17.912;2022-12-29T11:24:45;99282.24;;;0.64;92.47
44351;BME280;62766;62.622;17.912;2022-12-29T11:27:16;99283.87;;;0.83;92.09
44351;BME280;62766;62.622;17.912;2022-12-29T11:29:45;99274.49;;;0.79;91.82
44351;BME280;62766;62.622;17.912;2022-12-29T11:32:19;99272.31;;;0.71;91.68
44351;BME280;62766;62.622;17.912;2022-12-29T11:34:47;99266.17;;;0.72;91.56
44351;BME280;62766;62.622;17.912;2022-12-29T11:37:18;99258.01;;;0.79;91.46
44351;BME280;62766;62.622;17.912;2022-12-29T11:39:51;99256.82;;;0.87;91.74
44351;BME280;62766;62.622;17.912;2022-12-29T11:42:28;99244.64;;;0.81;91.66
44351;BME280;62766;62.622;17.912;2022-12-29T11:45:06;99242.76;;;0.79;91.70
44351;BME280;62766;62.622;17.912;2022-12-29T11:47:37;99237.68;;;0.82;91.80
44351;BME280;62766;62.622;17.912;2022-12-29T11:50:07;99231.11;;;0.80;91.37
44351;BME280;62766;62.622;17.912;2022-12-29T11:52:37;99223.16;;;0.86;91.18
44351;BME280;62766;62.622;17.912;2022-12-29T11:55:21;99232.97;;;0.89;90.99
44351;BME280;62766;62.622;17.912;2022-12-29T11:57:53;99236.56;;;0.87;91.12
44351;BME280;62766;62.622;17.912;2022-12-29T12:00:24;99225.54;;;0.76;91.28
44351;BME280;62766;62.622;17.912;2022-12-29T12:02:57;99214.66;;;0.87;91.09
44351;BME280;62766;62.622;17.912;2022-12-29T12:05:33;99211.32;;;0.89;91.23
44351;BME280;62766;62.622;17.912;2022-12-29T12:08:10;99214.36;;;0.91;91.13
44351;BME280;62766;62.622;17.912;2022-12-29T12:10:44;99206.86;;;0.94;91.09
44351;BME280;62766;62.622;17.912;2022-12-29T12:13:20;99216.16;;;0.95;91.12
44351;BME280;62766;62.622;17.912;2022-12-29T12:15:57;99204.47;;;0.90;91.30
44351;BME280;62766;62.622;17.912;2022-12-29T12:18:36;99196.03;;;0.84;91.15
44351;BME280;62766;62.622;17.912;2022-12-29T12:21:13;99195.69;;;0.91;90.81
44351;BME280;62766;62.622;17.912;2022-12-29T12:23:57;99191.34;;;0.97;90.33
44351;BME280;62766;62.622;17.912;2022-12-29T12:26:32;99186.29;;;1.02;89.89
44351;BME280;62766;62.622;17.912;2022-12-29T12:29:08;99178.67;;;0.94;89.66
44351;BME280;62766;62.622;17.912;2022-12-29T12:31:45;99175.05;;;1.08;89.48
44351;BME280;62766;62.622;17.912;2022-12-29T12:34:19;99165.02;;;0.97;89.32
44351;BME280;62766;62.622;17.912;2022-12-29T12:37:07;99166.62;;;0.88;89.17
44351;BME280;62766;62.622;17.912;2022-12-29T12:39:49;99159.02;;;0.94;89.10
44351;BME280;62766;62.622;17.912;2022-12-29T12:42:34;99151.76;;;0.81;89.21
44351;BME280;62766;62.622;17.912;2022-12-29T12:45:27;99157.78;;;0.87;89.12
44351;BME280;62766;62.622;17.912;2022-12-29T12:48:08;99157.03;;;0.77;89.40
44351;BME280;62766;62.622;17.912;2022-12-29T12:50:49;99147.82;;;0.88;89.34
44351;BME280;62766;62.622;17.912;2022-12-29T12:53:33;99146.49;;;0.90;89.26
44351;BME280;62766;62.622;17.912;2022-12-29T12:56:18;99136.26;;;0.82;89.36
44351;BME280;62766;62.622;17.912;2022-12-29T12:58:53;99131.13;;;0.82;89.28
44351;BME280;62766;62.622;17.912;2022-12-29T13:01:34;99127.95;;;0.76;89.33
44351;BME280;62766;62.622;17.912;2022-12-29T13:04:26;99131.92;;;0.66;89.65
44351;BME280;62766;62.622;17.912;2022-12-29T13:07:06;99124.79;;;0.70;89.76
44351;BME280;62766;62.622;17.912;2022-12-29T13:09:50;99117.88;;;0.63;89.72
44351;BME280;62766;62.622;17.912;2022-12-29T13:12:34;99118.19;;;0.59;89.79
44351;BME280;62766;62.622;17.912;2022-12-29T13:15:17;99115.23;;;0.73;89.86
44351;BME280;62766;62.622;17.912;2022-12-29T13:17:54;99101.84;;;0.59;89.72